sensor_id;sensor_type;location;lat;lon;timestamp;temperature;humidity
1277;DHT22;631;51.024;13.826;2023-09-19T00:01:42;16.60;99.90
1277;DHT22;631;51.024;13.826;2023-09-19T00:04:09;16.60;99.90
1277;DHT22;631;51.024;13.826;2023-09-19T00:06:38;16.70;99.90
1277;DHT22;631;51.024;13.826;2023-09-19T00:09:04;16.70;99.90
1277;DHT22;631;51.024;13.826;2023-09-19T00:11:30;16.70;99.90
1277;DHT22;631;51.024;13.826;2023-09-19T00:13:56;16.70;99.90
1277;DHT22;631;51.024;13.826;2023-09-19T00:16:24;16.70;99.90
1277;DHT22;631;51.024;13.826;2023-09-19T00:18:51;16.70;99.90
1277;DHT22;631;51.024;13.826;2023-09-19T00:21:16;16.70;99.90
1277;DHT22;631;51.024;13.826;2023-09-19T00:23:42;16.70;99.90
1277;DHT22;631;51.024;13.826;2023-09-19T00:26:07;16.70;99.90
1277;DHT22;631;51.024;13.826;2023-09-19T00:28:33;16.70;99.90
1277;DHT22;631;51.024;13.826;2023-09-19T00:30:59;16.70;99.90
1277;DHT22;631;51.024;13.826;2023-09-19T00:33:27;16.60;99.90
1277;DHT22;631;51.024;13.826;2023-09-19T00:35:56;16.70;99.90
1277;DHT22;631;51.024;13.826;2023-09-19T00:38:23;16.60;99.90
1277;DHT22;631;51.024;13.826;2023-09-19T00:40:53;16.60;99.90
1277;DHT22;631;51.024;13.826;2023-09-19T00:43:20;16.60;99.90
1277;DHT22;631;51.024;13.826;2023-09-19T00:45:48;16.60;99.90
1277;DHT22;631;51.024;13.826;2023-09-19T00:48:15;16.60;99.90
1277;DHT22;631;51.024;13.826;2023-09-19T00:50:44;16.60;99.90
1277;DHT22;631;51.024;13.826;2023-09-19T00:53:14;16.60;99.90
1277;DHT22;631;51.024;13.826;2023-09-19T00:55:41;16.60;99.90
1277;DHT22;631;51.024;13.826;2023-09-19T00:58:08;16.50;99.90
1277;DHT22;631;51.024;13.826;2023-09-19T01:00:36;16.50;99.90
1277;DHT22;631;51.024;13.826;2023-09-19T01:03:02;16.50;99.90
1277;DHT22;631;51.024;13.826;2023-09-19T01:05:28;16.40;99.90
1277;DHT22;631;51.024;13.826;2023-09-19T01:07:55;16.40;99.90
1277;DHT22;631;51.024;13.826;2023-09-19T01:10:21;16.50;99.90
1277;DHT22;631;51.024;13.826;2023-09-19T01:21:11;16.50;99.90
1277;DHT22;631;51.024;13.826;2023-09-19T01:29:37;16.50;99.90
1277;DHT22;631;51.024;13.826;2023-09-19T01:32:05;16.40;99.90
1277;DHT22;631;51.024;13.826;2023-09-19T01:37:15;16.30;99.90
1277;DHT22;631;51.024;13.826;2023-09-19T01:39:59;16.30;99.90
1277;DHT22;631;51.024;13.826;2023-09-19T01:50:59;16.30;99.90
1277;DHT22;631;51.024;13.826;2023-09-19T01:53:33;16.30;99.90
1277;DHT22;631;51.024;13.826;2023-09-19T01:55:59;16.30;99.90
1277;DHT22;631;51.024;13.826;2023-09-19T01:58:34;16.30;99.90
1277;DHT22;631;51.024;13.826;2023-09-19T02:01:01;16.30;99.90
1277;DHT22;631;51.024;13.826;2023-09-19T02:03:29;16.30;99.90
1277;DHT22;631;51.024;13.826;2023-09-19T02:05:56;16.30;99.90
1277;DHT22;631;51.024;13.826;2023-09-19T02:08:22;16.30;99.90
1277;DHT22;631;51.024;13.826;2023-09-19T02:10:51;16.30;99.90
1277;DHT22;631;51.024;13.826;2023-09-19T02:13:19;16.30;99.90
1277;DHT22;631;51.024;13.826;2023-09-19T02:15:46;16.30;99.90
1277;DHT22;631;51.024;13.826;2023-09-19T02:18:12;16.30;99.90
1277;DHT22;631;51.024;13.826;2023-09-19T02:20:39;16.30;99.90
1277;DHT22;631;51.024;13.826;2023-09-19T02:23:04;16.30;99.90
1277;DHT22;631;51.024;13.826;2023-09-19T02:25:30;16.30;99.90
1277;DHT22;631;51.024;13.826;2023-09-19T02:27:57;16.20;99.90
1277;DHT22;631;51.024;13.826;2023-09-19T02:30:24;16.20;99.90
1277;DHT22;631;51.024;13.826;2023-09-19T02:32:53;16.20;99.90
1277;DHT22;631;51.024;13.826;2023-09-19T02:35:18;16.20;99.90
1277;DHT22;631;51.024;13.826;2023-09-19T02:37:48;16.20;99.90
1277;DHT22;631;51.024;13.826;2023-09-19T02:40:14;16.20;99.90
1277;DHT22;631;51.024;13.826;2023-09-19T02:42:53;16.20;99.90
1277;DHT22;631;51.024;13.826;2023-09-19T02:45:20;16.20;99.90
1277;DHT22;631;51.024;13.826;2023-09-19T02:47:46;16.20;99.90
1277;DHT22;631;51.024;13.826;2023-09-19T02:50:12;16.20;99.90
1277;DHT22;631;51.024;13.826;2023-09-19T02:52:42;16.20;99.90
1277;DHT22;631;51.024;13.826;2023-09-19T02:55:13;16.20;99.90
1277;DHT22;631;51.024;13.826;2023-09-19T02:57:49;16.10;99.90
1277;DHT22;631;51.024;13.826;2023-09-19T03:00:17;16.20;99.90
1277;DHT22;631;51.024;13.826;2023-09-19T03:02:56;16.20;99.90
1277;DHT22;631;51.024;13.826;2023-09-19T03:05:23;16.20;99.90
1277;DHT22;631;51.024;13.826;2023-09-19T03:07:49;16.20;99.90
1277;DHT22;631;51.024;13.826;2023-09-19T03:10:18;16.20;99.90
1277;DHT22;631;51.024;13.826;2023-09-19T03:12:44;16.20;99.90
1277;DHT22;631;51.024;13.826;2023-09-19T03:15:10;16.10;99.90
1277;DHT22;631;51.024;13.826;2023-09-19T03:17:36;16.20;99.90
1277;DHT22;631;51.024;13.826;2023-09-19T03:20:03;16.10;99.90
1277;DHT22;631;51.024;13.826;2023-09-19T03:22:34;16.10;99.90
1277;DHT22;631;51.024;13.826;2023-09-19T03:25:00;16.10;99.90
1277;DHT22;631;51.024;13.826;2023-09-19T03:27:26;16.10;99.90
1277;DHT22;631;51.024;13.826;2023-09-19T03:29:52;16.10;99.90
1277;DHT22;631;51.024;13.826;2023-09-19T03:32:19;16.20;99.90
1277;DHT22;631;51.024;13.826;2023-09-19T03:34:45;16.20;99.90
1277;DHT22;631;51.024;13.826;2023-09-19T03:37:10;16.20;99.90
1277;DHT22;631;51.024;13.826;2023-09-19T03:39:36;16.20;99.90
1277;DHT22;631;51.024;13.826;2023-09-19T03:42:02;16.20;99.90
1277;DHT22;631;51.024;13.826;2023-09-19T03:44:29;16.20;99.90
1277;DHT22;631;51.024;13.826;2023-09-19T03:46:55;16.20;99.90
1277;DHT22;631;51.024;13.826;2023-09-19T03:49:22;16.20;99.90
1277;DHT22;631;51.024;13.826;2023-09-19T03:51:47;16.20;99.90
1277;DHT22;631;51.024;13.826;2023-09-19T03:54:13;16.20;99.90
1277;DHT22;631;51.024;13.826;2023-09-19T03:56:39;16.20;99.90
1277;DHT22;631;51.024;13.826;2023-09-19T03:59:04;16.20;99.90
1277;DHT22;631;51.024;13.826;2023-09-19T04:01:30;16.20;99.90
1277;DHT22;631;51.024;13.826;2023-09-19T04:03:58;16.20;99.90
1277;DHT22;631;51.024;13.826;2023-09-19T04:06:24;16.20;99.90
1277;DHT22;631;51.024;13.826;2023-09-19T04:08:50;16.20;99.90
1277;DHT22;631;51.024;13.826;2023-09-19T04:11:15;16.30;99.90
1277;DHT22;631;51.024;13.826;2023-09-19T04:13:41;16.30;99.90
1277;DHT22;631;51.024;13.826;2023-09-19T04:16:06;16.30;99.90
1277;DHT22;631;51.024;13.826;2023-09-19T04:18:33;16.40;99.90
1277;DHT22;631;51.024;13.826;2023-09-19T04:21:03;16.40;99.90
1277;DHT22;631;51.024;13.826;2023-09-19T04:23:30;16.40;99.90
1277;DHT22;631;51.024;13.826;2023-09-19T04:25:56;16.50;99.90
1277;DHT22;631;51.024;13.826;2023-09-19T04:28:22;16.50;99.90
1277;DHT22;631;51.024;13.826;2023-09-19T04:30:48;16.50;99.90
1277;DHT22;631;51.024;13.826;2023-09-19T04:33:14;16.50;99.90
1277;DHT22;631;51.024;13.826;2023-09-19T04:35:40;16.60;99.90
1277;DHT22;631;51.024;13.826;2023-09-19T04:38:07;16.60;99.90
1277;DHT22;631;51.024;13.826;2023-09-19T04:40:33;16.70;99.90
1277;DHT22;631;51.024;13.826;2023-09-19T04:42:59;16.70;99.90
1277;DHT22;631;51.024;13.826;2023-09-19T04:45:28;16.70;99.90
1277;DHT22;631;51.024;13.826;2023-09-19T04:47:55;16.70;99.90
1277;DHT22;631;51.024;13.826;2023-09-19T04:50:21;16.70;99.90
1277;DHT22;631;51.024;13.826;2023-09-19T04:52:51;16.70;99.90
1277;DHT22;631;51.024;13.826;2023-09-19T04:55:18;16.70;99.90
1277;DHT22;631;51.024;13.826;2023-09-19T04:57:48;16.70;99.90
1277;DHT22;631;51.024;13.826;2023-09-19T05:00:18;16.70;99.90
1277;DHT22;631;51.024;13.826;2023-09-19T05:02:45;16.60;99.90
1277;DHT22;631;51.024;13.826;2023-09-19T05:05:11;16.60;99.90
1277;DHT22;631;51.024;13.826;2023-09-19T05:07:41;16.60;99.90
1277;DHT22;631;51.024;13.826;2023-09-19T05:10:08;16.60;99.90
1277;DHT22;631;51.024;13.826;2023-09-19T05:12:34;16.60;99.90
1277;DHT22;631;51.024;13.826;2023-09-19T05:15:03;16.60;99.90
1277;DHT22;631;51.024;13.826;2023-09-19T05:17:30;16.50;99.90
1277;DHT22;631;51.024;13.826;2023-09-19T05:19:57;16.50;99.90
1277;DHT22;631;51.024;13.826;2023-09-19T05:22:24;16.50;99.90
1277;DHT22;631;51.024;13.826;2023-09-19T05:24:51;16.50;99.90
1277;DHT22;631;51.024;13.826;2023-09-19T05:27:18;16.40;99.90
1277;DHT22;631;51.024;13.826;2023-09-19T05:29:46;16.40;99.90
1277;DHT22;631;51.024;13.826;2023-09-19T05:32:12;16.50;99.90
1277;DHT22;631;51.024;13.826;2023-09-19T05:34:38;16.40;99.90
1277;DHT22;631;51.024;13.826;2023-09-19T05:37:04;16.40;99.90
1277;DHT22;631;51.024;13.826;2023-09-19T05:39:33;16.40;99.90
1277;DHT22;631;51.024;13.826;2023-09-19T05:41:58;16.50;99.90
1277;DHT22;631;51.024;13.826;2023-09-19T05:44:25;16.50;99.90
1277;DHT22;631;51.024;13.826;2023-09-19T05:46:51;16.60;99.90
1277;DHT22;631;51.024;13.826;2023-09-19T05:49:17;16.60;99.90
1277;DHT22;631;51.024;13.826;2023-09-19T05:51:43;16.70;99.90
1277;DHT22;631;51.024;13.826;2023-09-19T05:54:09;16.70;99.90
1277;DHT22;631;51.024;13.826;2023-09-19T05:56:36;16.70;99.90
1277;DHT22;631;51.024;13.826;2023-09-19T05:59:02;16.80;99.90
1277;DHT22;631;51.024;13.826;2023-09-19T06:01:29;16.90;99.90
1277;DHT22;631;51.024;13.826;2023-09-19T06:03:56;17.00;99.90
1277;DHT22;631;51.024;13.826;2023-09-19T06:06:22;17.10;99.90
1277;DHT22;631;51.024;13.826;2023-09-19T06:08:49;17.20;99.90
1277;DHT22;631;51.024;13.826;2023-09-19T06:11:15;17.20;99.90
1277;DHT22;631;51.024;13.826;2023-09-19T06:13:41;17.30;99.90
1277;DHT22;631;51.024;13.826;2023-09-19T06:16:07;17.40;99.90
1277;DHT22;631;51.024;13.826;2023-09-19T06:18:32;17.60;99.90
1277;DHT22;631;51.024;13.826;2023-09-19T06:20:59;17.60;99.90
1277;DHT22;631;51.024;13.826;2023-09-19T06:23:26;17.70;99.90
1277;DHT22;631;51.024;13.826;2023-09-19T06:25:54;17.80;99.90
1277;DHT22;631;51.024;13.826;2023-09-19T06:28:20;17.90;99.90
1277;DHT22;631;51.024;13.826;2023-09-19T06:30:50;18.00;99.90
1277;DHT22;631;51.024;13.826;2023-09-19T06:33:15;18.10;99.90
1277;DHT22;631;51.024;13.826;2023-09-19T06:35:42;18.10;99.90
1277;DHT22;631;51.024;13.826;2023-09-19T06:38:09;18.30;99.90
1277;DHT22;631;51.024;13.826;2023-09-19T06:40:38;18.30;99.90
1277;DHT22;631;51.024;13.826;2023-09-19T06:43:05;18.40;99.90
1277;DHT22;631;51.024;13.826;2023-09-19T06:45:30;18.50;99.90
1277;DHT22;631;51.024;13.826;2023-09-19T06:47:57;18.50;99.90
1277;DHT22;631;51.024;13.826;2023-09-19T06:50:23;18.50;99.90
1277;DHT22;631;51.024;13.826;2023-09-19T06:52:51;18.60;99.90
1277;DHT22;631;51.024;13.826;2023-09-19T06:55:18;18.60;99.90
1277;DHT22;631;51.024;13.826;2023-09-19T06:57:45;18.70;99.90
1277;DHT22;631;51.024;13.826;2023-09-19T07:00:12;18.70;99.90
1277;DHT22;631;51.024;13.826;2023-09-19T07:03:05;18.80;99.90
1277;DHT22;631;51.024;13.826;2023-09-19T07:05:36;18.80;99.90
1277;DHT22;631;51.024;13.826;2023-09-19T07:08:03;18.90;99.90
1277;DHT22;631;51.024;13.826;2023-09-19T07:10:30;19.00;99.90
1277;DHT22;631;51.024;13.826;2023-09-19T07:13:03;19.10;99.90
1277;DHT22;631;51.024;13.826;2023-09-19T07:15:31;19.10;99.90
1277;DHT22;631;51.024;13.826;2023-09-19T07:17:59;19.20;99.90
1277;DHT22;631;51.024;13.826;2023-09-19T07:20:26;19.40;99.90
1277;DHT22;631;51.024;13.826;2023-09-19T07:22:53;19.60;99.90
1277;DHT22;631;51.024;13.826;2023-09-19T07:25:20;19.80;99.90
1277;DHT22;631;51.024;13.826;2023-09-19T07:27:46;19.80;99.90
1277;DHT22;631;51.024;13.826;2023-09-19T07:30:12;19.80;99.90
1277;DHT22;631;51.024;13.826;2023-09-19T07:32:38;19.90;99.90
1277;DHT22;631;51.024;13.826;2023-09-19T07:35:05;20.00;99.90
1277;DHT22;631;51.024;13.826;2023-09-19T07:37:34;20.20;99.90
1277;DHT22;631;51.024;13.826;2023-09-19T07:40:00;20.30;99.90
1277;DHT22;631;51.024;13.826;2023-09-19T07:42:26;20.40;99.90
1277;DHT22;631;51.024;13.826;2023-09-19T07:44:52;20.30;99.90
1277;DHT22;631;51.024;13.826;2023-09-19T07:47:20;20.30;99.90
1277;DHT22;631;51.024;13.826;2023-09-19T07:49:49;20.10;99.90
1277;DHT22;631;51.024;13.826;2023-09-19T07:52:15;20.20;99.90
1277;DHT22;631;51.024;13.826;2023-09-19T07:54:41;20.20;99.90
1277;DHT22;631;51.024;13.826;2023-09-19T07:57:10;20.20;99.90
1277;DHT22;631;51.024;13.826;2023-09-19T07:59:36;20.20;99.90
1277;DHT22;631;51.024;13.826;2023-09-19T08:02:04;20.30;99.90
1277;DHT22;631;51.024;13.826;2023-09-19T08:04:30;20.50;99.90
1277;DHT22;631;51.024;13.826;2023-09-19T08:06:59;20.60;99.90
1277;DHT22;631;51.024;13.826;2023-09-19T08:09:26;20.60;99.90
1277;DHT22;631;51.024;13.826;2023-09-19T08:11:51;20.60;99.90
1277;DHT22;631;51.024;13.826;2023-09-19T08:14:17;20.80;99.90
1277;DHT22;631;51.024;13.826;2023-09-19T08:16:43;21.10;99.90
1277;DHT22;631;51.024;13.826;2023-09-19T08:19:10;21.30;99.90
1277;DHT22;631;51.024;13.826;2023-09-19T08:21:36;21.50;99.90
1277;DHT22;631;51.024;13.826;2023-09-19T08:24:02;21.80;99.90
1277;DHT22;631;51.024;13.826;2023-09-19T08:26:31;22.10;99.10
1277;DHT22;631;51.024;13.826;2023-09-19T08:28:57;22.50;96.00
1277;DHT22;631;51.024;13.826;2023-09-19T08:31:22;22.90;97.60
1277;DHT22;631;51.024;13.826;2023-09-19T08:33:49;23.50;93.60
1277;DHT22;631;51.024;13.826;2023-09-19T08:36:16;24.00;92.40
1277;DHT22;631;51.024;13.826;2023-09-19T08:38:42;24.30;82.50
1277;DHT22;631;51.024;13.826;2023-09-19T08:41:08;24.50;77.20
1277;DHT22;631;51.024;13.826;2023-09-19T08:43:34;24.90;77.40
1277;DHT22;631;51.024;13.826;2023-09-19T08:46:11;25.00;70.60
1277;DHT22;631;51.024;13.826;2023-09-19T08:48:45;24.90;70.10
1277;DHT22;631;51.024;13.826;2023-09-19T08:51:28;24.30;70.60
1277;DHT22;631;51.024;13.826;2023-09-19T08:54:08;24.30;73.10
1277;DHT22;631;51.024;13.826;2023-09-19T08:56:37;24.30;73.10
1277;DHT22;631;51.024;13.826;2023-09-19T08:59:06;24.60;73.60
1277;DHT22;631;51.024;13.826;2023-09-19T09:01:38;24.70;70.30
1277;DHT22;631;51.024;13.826;2023-09-19T09:04:08;24.00;69.30
1277;DHT22;631;51.024;13.826;2023-09-19T09:06:34;23.50;72.50
1277;DHT22;631;51.024;13.826;2023-09-19T09:09:02;23.60;75.30
1277;DHT22;631;51.024;13.826;2023-09-19T09:11:28;23.90;75.50
1277;DHT22;631;51.024;13.826;2023-09-19T09:13:54;24.30;73.10
1277;DHT22;631;51.024;13.826;2023-09-19T09:16:20;24.50;70.00
1277;DHT22;631;51.024;13.826;2023-09-19T09:18:46;25.00;65.30
1277;DHT22;631;51.024;13.826;2023-09-19T09:21:12;25.20;64.40
1277;DHT22;631;51.024;13.826;2023-09-19T09:23:41;25.70;61.70
1277;DHT22;631;51.024;13.826;2023-09-19T09:26:06;26.20;59.30
1277;DHT22;631;51.024;13.826;2023-09-19T09:28:34;26.10;54.50
1277;DHT22;631;51.024;13.826;2023-09-19T09:31:01;26.40;55.30
1277;DHT22;631;51.024;13.826;2023-09-19T09:33:34;27.00;55.50
1277;DHT22;631;51.024;13.826;2023-09-19T09:36:01;27.50;51.50
1277;DHT22;631;51.024;13.826;2023-09-19T09:38:45;27.80;49.30
1277;DHT22;631;51.024;13.826;2023-09-19T09:41:11;27.60;47.20
1277;DHT22;631;51.024;13.826;2023-09-19T09:43:42;27.30;49.50
1277;DHT22;631;51.024;13.826;2023-09-19T09:46:18;26.70;49.40
1277;DHT22;631;51.024;13.826;2023-09-19T09:48:48;26.20;50.00
1277;DHT22;631;51.024;13.826;2023-09-19T09:51:36;25.80;52.20
1277;DHT22;631;51.024;13.826;2023-09-19T09:54:15;25.20;54.60
1277;DHT22;631;51.024;13.826;2023-09-19T09:56:57;24.70;56.20
1277;DHT22;631;51.024;13.826;2023-09-19T09:59:56;24.60;61.00
1277;DHT22;631;51.024;13.826;2023-09-19T10:02:41;25.30;57.50
1277;DHT22;631;51.024;13.826;2023-09-19T10:05:16;25.50;56.40
1277;DHT22;631;51.024;13.826;2023-09-19T10:07:54;25.40;56.60
1277;DHT22;631;51.024;13.826;2023-09-19T10:13:07;25.60;56.00
1277;DHT22;631;51.024;13.826;2023-09-19T10:15:33;25.90;57.70
1277;DHT22;631;51.024;13.826;2023-09-19T10:18:05;26.50;53.20
1277;DHT22;631;51.024;13.826;2023-09-19T10:20:33;27.30;49.30
1277;DHT22;631;51.024;13.826;2023-09-19T10:23:01;27.30;48.30
1277;DHT22;631;51.024;13.826;2023-09-19T10:25:29;27.40;47.80
1277;DHT22;631;51.024;13.826;2023-09-19T10:28:00;27.90;48.50
1277;DHT22;631;51.024;13.826;2023-09-19T10:30:37;28.40;44.80
1277;DHT22;631;51.024;13.826;2023-09-19T10:33:04;28.40;43.00
1277;DHT22;631;51.024;13.826;2023-09-19T10:35:34;28.60;44.70
1277;DHT22;631;51.024;13.826;2023-09-19T10:38:04;27.60;42.80
1277;DHT22;631;51.024;13.826;2023-09-19T10:40:33;28.10;44.60
1277;DHT22;631;51.024;13.826;2023-09-19T10:43:03;28.10;46.20
1277;DHT22;631;51.024;13.826;2023-09-19T10:45:35;28.80;45.40
1277;DHT22;631;51.024;13.826;2023-09-19T10:48:04;29.50;40.10
1277;DHT22;631;51.024;13.826;2023-09-19T10:50:40;29.20;40.00
1277;DHT22;631;51.024;13.826;2023-09-19T10:53:07;28.50;37.80
1277;DHT22;631;51.024;13.826;2023-09-19T10:55:36;27.90;40.40
1277;DHT22;631;51.024;13.826;2023-09-19T10:58:02;28.20;42.70
1277;DHT22;631;51.024;13.826;2023-09-19T11:00:57;28.70;38.90
1277;DHT22;631;51.024;13.826;2023-09-19T11:03:26;28.90;38.90
1277;DHT22;631;51.024;13.826;2023-09-19T11:06:03;29.70;38.60
1277;DHT22;631;51.024;13.826;2023-09-19T11:08:50;30.30;36.30
1277;DHT22;631;51.024;13.826;2023-09-19T11:11:54;30.50;36.10
1277;DHT22;631;51.024;13.826;2023-09-19T11:30:46;28.10;32.90
1277;DHT22;631;51.024;13.826;2023-09-19T11:33:22;27.40;34.80
1277;DHT22;631;51.024;13.826;2023-09-19T11:36:12;26.50;35.20
1277;DHT22;631;51.024;13.826;2023-09-19T11:43:52;25.50;38.70
1277;DHT22;631;51.024;13.826;2023-09-19T11:46:20;24.90;37.70
1277;DHT22;631;51.024;13.826;2023-09-19T11:48:49;25.00;37.40
1277;DHT22;631;51.024;13.826;2023-09-19T11:51:18;24.90;36.10
1277;DHT22;631;51.024;13.826;2023-09-19T11:53:52;25.00;37.10
1277;DHT22;631;51.024;13.826;2023-09-19T11:56:20;25.40;38.00
1277;DHT22;631;51.024;13.826;2023-09-19T11:58:49;25.80;37.80
1277;DHT22;631;51.024;13.826;2023-09-19T12:01:22;25.90;37.10
1277;DHT22;631;51.024;13.826;2023-09-19T12:03:53;26.30;36.30
1277;DHT22;631;51.024;13.826;2023-09-19T12:06:19;26.60;33.70
1277;DHT22;631;51.024;13.826;2023-09-19T12:08:47;26.50;35.40
1277;DHT22;631;51.024;13.826;2023-09-19T12:11:16;26.70;35.50
1277;DHT22;631;51.024;13.826;2023-09-19T12:13:46;27.10;34.80
1277;DHT22;631;51.024;13.826;2023-09-19T12:18:46;27.40;35.40
1277;DHT22;631;51.024;13.826;2023-09-19T12:21:32;27.60;36.30
1277;DHT22;631;51.024;13.826;2023-09-19T12:24:06;27.50;35.20
1277;DHT22;631;51.024;13.826;2023-09-19T12:26:41;27.90;37.30
1277;DHT22;631;51.024;13.826;2023-09-19T12:29:14;27.90;36.80
1277;DHT22;631;51.024;13.826;2023-09-19T12:31:55;28.40;37.10
1277;DHT22;631;51.024;13.826;2023-09-19T12:34:27;28.60;32.90
1277;DHT22;631;51.024;13.826;2023-09-19T12:37:12;28.50;34.80
1277;DHT22;631;51.024;13.826;2023-09-19T12:39:39;28.20;35.30
1277;DHT22;631;51.024;13.826;2023-09-19T12:42:10;27.80;37.00
1277;DHT22;631;51.024;13.826;2023-09-19T12:44:44;27.70;38.00
1277;DHT22;631;51.024;13.826;2023-09-19T12:47:11;28.30;38.30
1277;DHT22;631;51.024;13.826;2023-09-19T12:52:36;29.00;36.40
1277;DHT22;631;51.024;13.826;2023-09-19T12:55:02;28.60;36.50
1277;DHT22;631;51.024;13.826;2023-09-19T12:57:28;28.70;36.80
1277;DHT22;631;51.024;13.826;2023-09-19T12:59:55;28.60;34.70
1277;DHT22;631;51.024;13.826;2023-09-19T13:02:21;28.60;35.70
1277;DHT22;631;51.024;13.826;2023-09-19T13:04:53;28.70;35.90
1277;DHT22;631;51.024;13.826;2023-09-19T13:07:44;28.80;35.10
1277;DHT22;631;51.024;13.826;2023-09-19T13:10:11;28.80;36.40
1277;DHT22;631;51.024;13.826;2023-09-19T13:12:41;29.10;35.50
1277;DHT22;631;51.024;13.826;2023-09-19T13:15:11;29.50;34.40
1277;DHT22;631;51.024;13.826;2023-09-19T13:17:44;28.60;33.30
1277;DHT22;631;51.024;13.826;2023-09-19T13:20:26;28.60;35.30
1277;DHT22;631;51.024;13.826;2023-09-19T13:22:57;28.60;35.50
1277;DHT22;631;51.024;13.826;2023-09-19T13:25:33;28.30;33.20
1277;DHT22;631;51.024;13.826;2023-09-19T13:28:00;28.10;35.30
1277;DHT22;631;51.024;13.826;2023-09-19T13:30:30;28.20;35.80
1277;DHT22;631;51.024;13.826;2023-09-19T13:33:07;28.10;35.30
1277;DHT22;631;51.024;13.826;2023-09-19T13:35:35;27.40;34.80
1277;DHT22;631;51.024;13.826;2023-09-19T13:38:00;27.20;35.10
1277;DHT22;631;51.024;13.826;2023-09-19T13:40:26;27.00;36.50
1277;DHT22;631;51.024;13.826;2023-09-19T13:42:56;26.90;36.90
1277;DHT22;631;51.024;13.826;2023-09-19T13:45:22;26.70;38.20
1277;DHT22;631;51.024;13.826;2023-09-19T13:47:50;26.70;37.70
1277;DHT22;631;51.024;13.826;2023-09-19T13:50:15;26.50;38.10
1277;DHT22;631;51.024;13.826;2023-09-19T13:52:42;26.70;38.90
1277;DHT22;631;51.024;13.826;2023-09-19T13:55:08;26.40;36.90
1277;DHT22;631;51.024;13.826;2023-09-19T13:57:34;26.60;37.40
1277;DHT22;631;51.024;13.826;2023-09-19T13:59:59;26.90;39.50
1277;DHT22;631;51.024;13.826;2023-09-19T14:02:25;27.10;37.20
1277;DHT22;631;51.024;13.826;2023-09-19T14:04:51;26.60;36.20
1277;DHT22;631;51.024;13.826;2023-09-19T14:07:17;26.30;37.40
1277;DHT22;631;51.024;13.826;2023-09-19T14:09:45;26.20;36.80
1277;DHT22;631;51.024;13.826;2023-09-19T14:12:11;26.40;36.70
1277;DHT22;631;51.024;13.826;2023-09-19T14:14:37;26.70;37.20
1277;DHT22;631;51.024;13.826;2023-09-19T14:17:03;26.80;35.40
1277;DHT22;631;51.024;13.826;2023-09-19T14:19:30;26.30;34.40
1277;DHT22;631;51.024;13.826;2023-09-19T14:21:55;25.60;35.90
1277;DHT22;631;51.024;13.826;2023-09-19T14:24:21;25.50;36.70
1277;DHT22;631;51.024;13.826;2023-09-19T14:26:47;25.40;37.20
1277;DHT22;631;51.024;13.826;2023-09-19T14:29:14;25.40;37.20
1277;DHT22;631;51.024;13.826;2023-09-19T14:31:40;25.40;36.50
1277;DHT22;631;51.024;13.826;2023-09-19T14:34:06;25.70;36.00
1277;DHT22;631;51.024;13.826;2023-09-19T14:36:32;25.80;36.90
1277;DHT22;631;51.024;13.826;2023-09-19T14:38:59;25.70;38.50
1277;DHT22;631;51.024;13.826;2023-09-19T14:41:25;25.40;37.60
1277;DHT22;631;51.024;13.826;2023-09-19T14:43:54;25.30;37.40
1277;DHT22;631;51.024;13.826;2023-09-19T14:46:21;25.50;37.90
1277;DHT22;631;51.024;13.826;2023-09-19T14:48:46;25.80;38.40
1277;DHT22;631;51.024;13.826;2023-09-19T14:51:13;25.70;35.00
1277;DHT22;631;51.024;13.826;2023-09-19T14:53:42;26.10;36.50
1277;DHT22;631;51.024;13.826;2023-09-19T14:56:09;25.30;35.30
1277;DHT22;631;51.024;13.826;2023-09-19T14:58:34;25.50;36.40
1277;DHT22;631;51.024;13.826;2023-09-19T15:01:11;25.70;35.00
1277;DHT22;631;51.024;13.826;2023-09-19T15:03:41;25.10;33.20
1277;DHT22;631;51.024;13.826;2023-09-19T15:06:09;24.90;34.60
1277;DHT22;631;51.024;13.826;2023-09-19T15:08:36;24.60;35.40
1277;DHT22;631;51.024;13.826;2023-09-19T15:11:07;24.90;35.90
1277;DHT22;631;51.024;13.826;2023-09-19T15:13:33;24.80;34.60
1277;DHT22;631;51.024;13.826;2023-09-19T15:16:06;25.30;35.80
1277;DHT22;631;51.024;13.826;2023-09-19T15:18:41;25.20;35.10
1277;DHT22;631;51.024;13.826;2023-09-19T15:21:11;25.00;35.70
1277;DHT22;631;51.024;13.826;2023-09-19T15:23:38;24.90;35.20
1277;DHT22;631;51.024;13.826;2023-09-19T15:26:04;24.70;35.10
1277;DHT22;631;51.024;13.826;2023-09-19T15:28:31;24.60;35.90
1277;DHT22;631;51.024;13.826;2023-09-19T15:31:02;24.50;36.60
1277;DHT22;631;51.024;13.826;2023-09-19T15:33:30;24.30;37.50
1277;DHT22;631;51.024;13.826;2023-09-19T15:38:29;24.10;38.40
1277;DHT22;631;51.024;13.826;2023-09-19T15:40:55;24.00;37.10
1277;DHT22;631;51.024;13.826;2023-09-19T15:43:20;23.70;37.10
1277;DHT22;631;51.024;13.826;2023-09-19T15:45:47;23.60;37.90
1277;DHT22;631;51.024;13.826;2023-09-19T15:48:13;23.50;39.00
1277;DHT22;631;51.024;13.826;2023-09-19T15:50:39;23.40;38.90
1277;DHT22;631;51.024;13.826;2023-09-19T15:53:07;23.20;38.40
1277;DHT22;631;51.024;13.826;2023-09-19T15:55:41;23.20;38.70
1277;DHT22;631;51.024;13.826;2023-09-19T15:58:07;23.10;38.50
1277;DHT22;631;51.024;13.826;2023-09-19T16:00:33;23.00;39.50
1277;DHT22;631;51.024;13.826;2023-09-19T16:03:02;22.80;39.80
1277;DHT22;631;51.024;13.826;2023-09-19T16:05:34;22.70;40.60
1277;DHT22;631;51.024;13.826;2023-09-19T16:08:03;22.60;40.80
1277;DHT22;631;51.024;13.826;2023-09-19T16:10:29;22.60;41.00
1277;DHT22;631;51.024;13.826;2023-09-19T16:12:55;22.50;41.30
1277;DHT22;631;51.024;13.826;2023-09-19T16:15:20;22.50;41.40
1277;DHT22;631;51.024;13.826;2023-09-19T16:17:46;22.40;41.90
1277;DHT22;631;51.024;13.826;2023-09-19T16:20:12;22.40;41.70
1277;DHT22;631;51.024;13.826;2023-09-19T16:22:38;22.30;40.30
1277;DHT22;631;51.024;13.826;2023-09-19T16:25:05;22.20;40.00
1277;DHT22;631;51.024;13.826;2023-09-19T16:27:31;22.00;40.00
1277;DHT22;631;51.024;13.826;2023-09-19T16:29:57;22.00;39.60
1277;DHT22;631;51.024;13.826;2023-09-19T16:32:22;21.90;39.40
1277;DHT22;631;51.024;13.826;2023-09-19T16:34:48;21.90;39.20
1277;DHT22;631;51.024;13.826;2023-09-19T16:37:13;21.90;39.00
1277;DHT22;631;51.024;13.826;2023-09-19T16:39:42;21.80;38.60
1277;DHT22;631;51.024;13.826;2023-09-19T16:42:08;21.80;39.40
1277;DHT22;631;51.024;13.826;2023-09-19T16:44:36;21.70;39.00
1277;DHT22;631;51.024;13.826;2023-09-19T16:47:01;21.60;38.90
1277;DHT22;631;51.024;13.826;2023-09-19T16:49:28;21.50;39.40
1277;DHT22;631;51.024;13.826;2023-09-19T16:51:55;21.50;39.50
1277;DHT22;631;51.024;13.826;2023-09-19T16:54:21;21.40;39.70
1277;DHT22;631;51.024;13.826;2023-09-19T16:56:48;21.30;39.90
1277;DHT22;631;51.024;13.826;2023-09-19T16:59:14;21.30;40.50
1277;DHT22;631;51.024;13.826;2023-09-19T17:01:40;21.30;40.20
1277;DHT22;631;51.024;13.826;2023-09-19T17:04:05;21.10;40.40
1277;DHT22;631;51.024;13.826;2023-09-19T17:06:33;21.00;40.90
1277;DHT22;631;51.024;13.826;2023-09-19T17:08:59;20.90;41.50